sensor_id;sensor_type;location;lat;lon;timestamp;pressure;altitude;pressure_sealevel;temperature;humidity
6680;BME280;3376;42.664;23.346;2023-02-12T00:01:17;95457.63;;;2.39;50.80
6680;BME280;3376;42.664;23.346;2023-02-12T00:03:45;95459.16;;;2.42;50.57
6680;BME280;3376;42.664;23.346;2023-02-12T00:06:12;95459.97;;;2.42;51.98
6680;BME280;3376;42.664;23.346;2023-02-12T00:08:39;95465.81;;;2.44;50.60
6680;BME280;3376;42.664;23.346;2023-02-12T00:11:07;95461.81;;;2.40;50.93
6680;BME280;3376;42.664;23.346;2023-02-12T00:13:35;95449.13;;;2.38;52.23
6680;BME280;3376;42.664;23.346;2023-02-12T00:16:04;95467.25;;;2.48;50.54
6680;BME280;3376;42.664;23.346;2023-02-12T00:18:32;95468.34;;;2.44;51.67
6680;BME280;3376;42.664;23.346;2023-02-12T00:21:00;95476.03;;;2.44;52.19
6680;BME280;3376;42.664;23.346;2023-02-12T00:23:27;95469.47;;;2.40;51.67
6680;BME280;3376;42.664;23.346;2023-02-12T00:25:53;95468.91;;;2.36;51.91
6680;BME280;3376;42.664;23.346;2023-02-12T00:28:21;95462.75;;;2.39;50.96
6680;BME280;3376;42.664;23.346;2023-02-12T00:30:47;95466.22;;;2.38;51.59
6680;BME280;3376;42.664;23.346;2023-02-12T00:33:14;95461.13;;;2.38;50.67
6680;BME280;3376;42.664;23.346;2023-02-12T00:35:43;95454.56;;;2.34;51.08
6680;BME280;3376;42.664;23.346;2023-02-12T00:38:10;95312.53;;;1.56;50.72
6680;BME280;3376;42.664;23.346;2023-02-12T00:40:36;95446.91;;;2.34;51.81
6680;BME280;3376;42.664;23.346;2023-02-12T00:43:03;95406.03;;;2.09;50.88
6680;BME280;3376;42.664;23.346;2023-02-12T00:45:30;95444.72;;;2.28;51.39
6680;BME280;3376;42.664;23.346;2023-02-12T00:47:57;95438.63;;;2.30;51.47
6680;BME280;3376;42.664;23.346;2023-02-12T00:50:24;95424.09;;;2.18;49.85
6680;BME280;3376;42.664;23.346;2023-02-12T00:52:52;95448.00;;;2.30;50.29
6680;BME280;3376;42.664;23.346;2023-02-12T00:55:19;95426.84;;;2.28;50.70
6680;BME280;3376;42.664;23.346;2023-02-12T00:57:45;95433.72;;;2.27;50.08
6680;BME280;3376;42.664;23.346;2023-02-12T01:00:14;95429.50;;;2.26;52.23
6680;BME280;3376;42.664;23.346;2023-02-12T01:02:41;95428.28;;;2.32;51.96
6680;BME280;3376;42.664;23.346;2023-02-12T01:05:08;95417.03;;;2.34;50.70
6680;BME280;3376;42.664;23.346;2023-02-12T01:07:35;95236.09;;;1.30;51.57
6680;BME280;3376;42.664;23.346;2023-02-12T01:10:05;95430.44;;;2.38;50.98
6680;BME280;3376;42.664;23.346;2023-02-12T01:12:32;95431.84;;;2.42;50.03
6680;BME280;3376;42.664;23.346;2023-02-12T01:15:00;95421.34;;;2.34;50.16
6680;BME280;3376;42.664;23.346;2023-02-12T01:17:27;95440.44;;;2.41;52.20
6680;BME280;3376;42.664;23.346;2023-02-12T01:19:56;95435.56;;;2.38;50.35
6680;BME280;3376;42.664;23.346;2023-02-12T01:22:24;95442.50;;;2.36;51.18
6680;BME280;3376;42.664;23.346;2023-02-12T01:24:51;95450.69;;;2.41;49.30
6680;BME280;3376;42.664;23.346;2023-02-12T01:27:19;95431.44;;;2.35;51.12
6680;BME280;3376;42.664;23.346;2023-02-12T01:29:45;95455.56;;;2.44;51.74
6680;BME280;3376;42.664;23.346;2023-02-12T01:32:12;95432.56;;;2.44;50.82
6680;BME280;3376;42.664;23.346;2023-02-12T01:34:39;95452.13;;;2.45;50.37
6680;BME280;3376;42.664;23.346;2023-02-12T01:37:06;95440.22;;;2.44;52.08
6680;BME280;3376;42.664;23.346;2023-02-12T01:39:32;95430.44;;;2.38;52.07
6680;BME280;3376;42.664;23.346;2023-02-12T01:42:00;95431.66;;;2.45;51.77
6680;BME280;3376;42.664;23.346;2023-02-12T01:44:29;95421.84;;;2.39;53.15
6680;BME280;3376;42.664;23.346;2023-02-12T01:46:58;95429.78;;;2.47;53.46
6680;BME280;3376;42.664;23.346;2023-02-12T01:49:29;95416.22;;;2.34;54.88
6680;BME280;3376;42.664;23.346;2023-02-12T01:52:00;95415.59;;;2.43;54.09
6680;BME280;3376;42.664;23.346;2023-02-12T01:54:29;95395.34;;;2.40;52.16
6680;BME280;3376;42.664;23.346;2023-02-12T01:56:58;95411.00;;;2.48;51.54
6680;BME280;3376;42.664;23.346;2023-02-12T01:59:25;95401.78;;;2.46;51.77
6680;BME280;3376;42.664;23.346;2023-02-12T02:01:54;95410.50;;;2.43;52.27
6680;BME280;3376;42.664;23.346;2023-02-12T02:04:22;95417.22;;;2.44;52.71
6680;BME280;3376;42.664;23.346;2023-02-12T02:06:54;95410.28;;;2.46;52.71
6680;BME280;3376;42.664;23.346;2023-02-12T02:09:23;95409.88;;;2.39;53.22
6680;BME280;3376;42.664;23.346;2023-02-12T02:11:50;95383.94;;;2.20;52.92
6680;BME280;3376;42.664;23.346;2023-02-12T02:14:35;95415.22;;;2.24;54.58
6680;BME280;3376;42.664;23.346;2023-02-12T02:17:25;95403.53;;;2.20;52.67
6680;BME280;3376;42.664;23.346;2023-02-12T02:20:11;95413.56;;;2.23;52.86
6680;BME280;3376;42.664;23.346;2023-02-12T02:22:47;95417.56;;;2.27;53.40
6680;BME280;3376;42.664;23.346;2023-02-12T02:25:47;95414.50;;;2.22;56.32
6680;BME280;3376;42.664;23.346;2023-02-12T02:28:32;95384.03;;;1.94;55.50
6680;BME280;3376;42.664;23.346;2023-02-12T02:31:08;95407.44;;;2.13;57.52
6680;BME280;3376;42.664;23.346;2023-02-12T02:33:45;95406.03;;;2.09;55.79
6680;BME280;3376;42.664;23.346;2023-02-12T02:36:24;95396.50;;;2.11;55.62
6680;BME280;3376;42.664;23.346;2023-02-12T02:38:55;95403.66;;;2.06;55.41
6680;BME280;3376;42.664;23.346;2023-02-12T02:41:32;95393.44;;;2.06;55.36
6680;BME280;3376;42.664;23.346;2023-02-12T02:44:03;95392.22;;;1.99;55.25
6680;BME280;3376;42.664;23.346;2023-02-12T02:46:35;95390.81;;;1.95;56.10
6680;BME280;3376;42.664;23.346;2023-02-12T02:49:09;95395.41;;;1.90;56.07
6680;BME280;3376;42.664;23.346;2023-02-12T02:51:41;95373.81;;;1.69;57.23
6680;BME280;3376;42.664;23.346;2023-02-12T02:54:14;95401.91;;;1.94;59.08
6680;BME280;3376;42.664;23.346;2023-02-12T02:56:45;95395.19;;;1.93;58.85
6680;BME280;3376;42.664;23.346;2023-02-12T02:59:17;95384.06;;;1.81;56.53
6680;BME280;3376;42.664;23.346;2023-02-12T03:01:51;95407.34;;;2.02;57.04
6680;BME280;3376;42.664;23.346;2023-02-12T03:04:21;95411.13;;;1.96;57.67
6680;BME280;3376;42.664;23.346;2023-02-12T03:06:55;95411.53;;;2.03;56.82
6680;BME280;3376;42.664;23.346;2023-02-12T03:09:26;95405.31;;;2.07;60.25
6680;BME280;3376;42.664;23.346;2023-02-12T03:12:00;95403.75;;;2.17;57.92
6680;BME280;3376;42.664;23.346;2023-02-12T03:14:31;95403.44;;;2.21;57.99
6680;BME280;3376;42.664;23.346;2023-02-12T03:17:04;95366.38;;;1.91;59.74
6680;BME280;3376;42.664;23.346;2023-02-12T03:19:36;95405.09;;;2.22;57.74
6680;BME280;3376;42.664;23.346;2023-02-12T03:22:07;95394.47;;;2.16;57.08
6680;BME280;3376;42.664;23.346;2023-02-12T03:24:36;95357.81;;;1.92;57.07
6680;BME280;3376;42.664;23.346;2023-02-12T03:27:09;95399.25;;;2.08;58.39
6680;BME280;3376;42.664;23.346;2023-02-12T03:29:36;95398.88;;;2.14;57.89
6680;BME280;3376;42.664;23.346;2023-02-12T03:32:15;95392.00;;;2.14;59.00
6680;BME280;3376;42.664;23.346;2023-02-12T03:34:49;95397.84;;;2.04;58.08
6680;BME280;3376;42.664;23.346;2023-02-12T03:37:27;95377.91;;;1.84;60.83
6680;BME280;3376;42.664;23.346;2023-02-12T03:39:57;95386.31;;;1.98;59.69
6680;BME280;3376;42.664;23.346;2023-02-12T03:42:32;95398.97;;;2.00;60.96
6680;BME280;3376;42.664;23.346;2023-02-12T03:45:03;95394.19;;;1.95;62.76
6680;BME280;3376;42.664;23.346;2023-02-12T03:47:42;95364.75;;;1.77;59.66
6680;BME280;3376;42.664;23.346;2023-02-12T03:50:13;95393.16;;;1.98;60.82
6680;BME280;3376;42.664;23.346;2023-02-12T03:52:43;95402.13;;;2.03;59.26
6680;BME280;3376;42.664;23.346;2023-02-12T03:55:11;95393.97;;;1.86;61.67
6680;BME280;3376;42.664;23.346;2023-02-12T03:57:41;95405.84;;;1.87;60.75
6680;BME280;3376;42.664;23.346;2023-02-12T04:00:11;95390.16;;;1.79;59.93
6680;BME280;3376;42.664;23.346;2023-02-12T04:02:41;95400.19;;;1.82;61.81
6680;BME280;3376;42.664;23.346;2023-02-12T04:05:15;95385.06;;;1.79;61.87
6680;BME280;3376;42.664;23.346;2023-02-12T04:07:42;95376.88;;;1.74;61.18
6680;BME280;3376;42.664;23.346;2023-02-12T04:10:10;95235.97;;;0.93;61.88
6680;BME280;3376;42.664;23.346;2023-02-12T04:12:39;95387.75;;;1.90;61.01
6680;BME280;3376;42.664;23.346;2023-02-12T04:15:34;95388.53;;;1.90;60.07
6680;BME280;3376;42.664;23.346;2023-02-12T04:18:09;95397.94;;;1.90;63.20
6680;BME280;3376;42.664;23.346;2023-02-12T04:20:51;95404.41;;;1.95;62.30
6680;BME280;3376;42.664;23.346;2023-02-12T04:23:32;95409.50;;;1.95;61.45
6680;BME280;3376;42.664;23.346;2023-02-12T04:26:10;95407.97;;;1.93;63.97
6680;BME280;3376;42.664;23.346;2023-02-12T04:28:49;95413.06;;;1.93;64.14
6680;BME280;3376;42.664;23.346;2023-02-12T04:31:23;95259.56;;;1.09;62.03
6680;BME280;3376;42.664;23.346;2023-02-12T04:34:03;95397.03;;;1.91;61.77
6680;BME280;3376;42.664;23.346;2023-02-12T04:36:34;95424.72;;;2.22;60.37
6680;BME280;3376;42.664;23.346;2023-02-12T04:39:05;95396.72;;;1.95;60.06
6680;BME280;3376;42.664;23.346;2023-02-12T04:41:36;95408.75;;;2.06;62.80
6680;BME280;3376;42.664;23.346;2023-02-12T04:44:18;95380.28;;;1.87;59.82
6680;BME280;3376;42.664;23.346;2023-02-12T04:46:44;95410.41;;;2.07;61.50
6680;BME280;3376;42.664;23.346;2023-02-12T04:49:15;95424.31;;;2.03;61.58
6680;BME280;3376;42.664;23.346;2023-02-12T04:51:42;95424.03;;;2.07;61.76
6680;BME280;3376;42.664;23.346;2023-02-12T04:54:09;95426.56;;;2.07;63.47
6680;BME280;3376;42.664;23.346;2023-02-12T04:56:36;95422.06;;;2.11;63.00
6680;BME280;3376;42.664;23.346;2023-02-12T04:59:03;95406.13;;;1.95;61.69
6680;BME280;3376;42.664;23.346;2023-02-12T05:01:33;95412.66;;;1.99;63.29
6680;BME280;3376;42.664;23.346;2023-02-12T05:04:00;95386.28;;;1.86;62.89
6680;BME280;3376;42.664;23.346;2023-02-12T05:06:28;95424.94;;;2.19;61.58
6680;BME280;3376;42.664;23.346;2023-02-12T05:08:56;95428.59;;;2.15;61.72
6680;BME280;3376;42.664;23.346;2023-02-12T05:11:23;95363.00;;;1.65;63.87
6680;BME280;3376;42.664;23.346;2023-02-12T05:13:50;95425.66;;;2.08;62.86
6680;BME280;3376;42.664;23.346;2023-02-12T05:16:17;95413.06;;;2.18;72.28
6680;BME280;3376;42.664;23.346;2023-02-12T05:18:44;95440.16;;;2.20;65.29
6680;BME280;3376;42.664;23.346;2023-02-12T05:21:11;95430.25;;;2.16;63.58
6680;BME280;3376;42.664;23.346;2023-02-12T05:23:40;95446.59;;;2.26;62.74
6680;BME280;3376;42.664;23.346;2023-02-12T05:26:10;95443.44;;;2.22;65.07
6680;BME280;3376;42.664;23.346;2023-02-12T05:28:37;95455.59;;;2.19;63.33
6680;BME280;3376;42.664;23.346;2023-02-12T05:31:06;95441.19;;;2.05;63.84
6680;BME280;3376;42.664;23.346;2023-02-12T05:33:34;95429.63;;;2.12;67.25
6680;BME280;3376;42.664;23.346;2023-02-12T05:36:04;95458.94;;;2.19;64.27
6680;BME280;3376;42.664;23.346;2023-02-12T05:38:31;95457.22;;;2.20;66.55
6680;BME280;3376;42.664;23.346;2023-02-12T05:41:03;95465.41;;;2.25;65.96
6680;BME280;3376;42.664;23.346;2023-02-12T05:43:30;95476.47;;;2.38;65.96
6680;BME280;3376;42.664;23.346;2023-02-12T05:45:58;95458.25;;;2.17;64.09
6680;BME280;3376;42.664;23.346;2023-02-12T05:48:25;95473.69;;;2.16;65.77
6680;BME280;3376;42.664;23.346;2023-02-12T05:50:52;95479.31;;;2.08;66.81
6680;BME280;3376;42.664;23.346;2023-02-12T05:53:19;95482.34;;;2.01;68.01
6680;BME280;3376;42.664;23.346;2023-02-12T05:55:47;95471.50;;;1.97;68.98
6680;BME280;3376;42.664;23.346;2023-02-12T05:58:15;95471.00;;;1.80;70.97
6680;BME280;3376;42.664;23.346;2023-02-12T06:00:42;95449.72;;;1.67;71.46
6680;BME280;3376;42.664;23.346;2023-02-12T06:03:08;95346.00;;;1.14;71.26
6680;BME280;3376;42.664;23.346;2023-02-12T06:05:35;95469.59;;;1.88;71.51
6680;BME280;3376;42.664;23.346;2023-02-12T06:08:02;95481.84;;;1.96;72.72
6680;BME280;3376;42.664;23.346;2023-02-12T06:10:29;95477.44;;;1.85;71.01
6680;BME280;3376;42.664;23.346;2023-02-12T06:12:56;95469.13;;;1.82;72.13
6680;BME280;3376;42.664;23.346;2023-02-12T06:15:24;95483.59;;;1.95;74.27
6680;BME280;3376;42.664;23.346;2023-02-12T06:17:51;95482.47;;;1.87;76.76
6680;BME280;3376;42.664;23.346;2023-02-12T06:20:17;95486.63;;;1.88;74.95
6680;BME280;3376;42.664;23.346;2023-02-12T06:22:44;95482.97;;;1.92;76.17
6680;BME280;3376;42.664;23.346;2023-02-12T06:25:11;95485.91;;;1.86;76.96
6680;BME280;3376;42.664;23.346;2023-02-12T06:27:38;95489.91;;;1.90;78.54
6680;BME280;3376;42.664;23.346;2023-02-12T06:30:05;95483.16;;;1.89;79.18
6680;BME280;3376;42.664;23.346;2023-02-12T06:32:34;95489.69;;;1.80;79.91
6680;BME280;3376;42.664;23.346;2023-02-12T06:35:01;95496.72;;;1.77;81.48
6680;BME280;3376;42.664;23.346;2023-02-12T06:37:27;95484.16;;;1.74;85.73
6680;BME280;3376;42.664;23.346;2023-02-12T06:39:54;95498.63;;;1.61;87.21
6680;BME280;3376;42.664;23.346;2023-02-12T06:42:21;95493.63;;;1.59;87.65
6680;BME280;3376;42.664;23.346;2023-02-12T06:44:48;95499.38;;;1.63;87.71
6680;BME280;3376;42.664;23.346;2023-02-12T06:47:14;95498.97;;;1.69;88.07
6680;BME280;3376;42.664;23.346;2023-02-12T06:49:43;95494.38;;;1.74;88.17
6680;BME280;3376;42.664;23.346;2023-02-12T06:52:09;95473.91;;;1.61;88.62
6680;BME280;3376;42.664;23.346;2023-02-12T06:54:37;95495.78;;;1.65;88.01
6680;BME280;3376;42.664;23.346;2023-02-12T06:57:04;95490.66;;;1.65;88.77
6680;BME280;3376;42.664;23.346;2023-02-12T06:59:31;95474.72;;;1.62;89.67
6680;BME280;3376;42.664;23.346;2023-02-12T07:01:57;95494.38;;;1.74;89.91
6680;BME280;3376;42.664;23.346;2023-02-12T07:04:24;95495.41;;;1.84;89.42
6680;BME280;3376;42.664;23.346;2023-02-12T07:06:52;95500.41;;;1.85;88.16
6680;BME280;3376;42.664;23.346;2023-02-12T07:09:19;95497.69;;;1.88;88.82
6680;BME280;3376;42.664;23.346;2023-02-12T07:11:45;95495.66;;;1.93;87.18
6680;BME280;3376;42.664;23.346;2023-02-12T07:14:13;95489.06;;;1.77;87.95
6680;BME280;3376;42.664;23.346;2023-02-12T07:16:40;95497.16;;;1.83;88.40
6680;BME280;3376;42.664;23.346;2023-02-12T07:19:08;95505.53;;;1.85;86.85
6680;BME280;3376;42.664;23.346;2023-02-12T07:21:37;95504.09;;;1.94;87.06
6680;BME280;3376;42.664;23.346;2023-02-12T07:24:05;95501.97;;;1.88;87.98
6680;BME280;3376;42.664;23.346;2023-02-12T07:26:36;95479.47;;;1.80;88.94
6680;BME280;3376;42.664;23.346;2023-02-12T07:29:03;95504.13;;;2.06;88.03
6680;BME280;3376;42.664;23.346;2023-02-12T07:31:30;95498.47;;;1.89;87.98
6680;BME280;3376;42.664;23.346;2023-02-12T07:33:58;95501.75;;;1.91;86.64
6680;BME280;3376;42.664;23.346;2023-02-12T07:36:26;95493.09;;;1.93;86.95
6680;BME280;3376;42.664;23.346;2023-02-12T07:38:54;95516.81;;;2.08;87.89
6680;BME280;3376;42.664;23.346;2023-02-12T07:41:24;95516.28;;;2.03;86.45
6680;BME280;3376;42.664;23.346;2023-02-12T07:43:53;95515.25;;;1.93;88.89
6680;BME280;3376;42.664;23.346;2023-02-12T07:46:22;95526.94;;;1.97;88.87
6680;BME280;3376;42.664;23.346;2023-02-12T07:48:51;95522.50;;;1.86;88.62
6680;BME280;3376;42.664;23.346;2023-02-12T07:51:18;95505.53;;;1.85;90.67
6680;BME280;3376;42.664;23.346;2023-02-12T07:53:44;95515.06;;;1.96;89.55
6680;BME280;3376;42.664;23.346;2023-02-12T07:56:14;95520.50;;;2.04;89.62
6680;BME280;3376;42.664;23.346;2023-02-12T07:58:43;95526.63;;;2.01;90.68
6680;BME280;3376;42.664;23.346;2023-02-12T08:01:13;95515.97;;;1.95;90.51
6680;BME280;3376;42.664;23.346;2023-02-12T08:03:40;95525.78;;;3.01;100.00
6680;BME280;3376;42.664;23.346;2023-02-12T08:06:08;95531.56;;;3.28;100.00
6680;BME280;3376;42.664;23.346;2023-02-12T08:08:35;95537.47;;;3.65;100.00
6680;BME280;3376;42.664;23.346;2023-02-12T08:11:03;95529.13;;;4.09;100.00
6680;BME280;3376;42.664;23.346;2023-02-12T08:13:31;95529.00;;;4.45;100.00
6680;BME280;3376;42.664;23.346;2023-02-12T08:16:04;95517.94;;;4.66;100.00
6680;BME280;3376;42.664;23.346;2023-02-12T08:18:31;95541.44;;;4.95;94.59
6680;BME280;3376;42.664;23.346;2023-02-12T08:21:02;95543.28;;;5.04;86.25
6680;BME280;3376;42.664;23.346;2023-02-12T08:23:29;95542.34;;;4.61;85.30
6680;BME280;3376;42.664;23.346;2023-02-12T08:26:04;95396.66;;;3.52;92.18
6680;BME280;3376;42.664;23.346;2023-02-12T08:28:31;95542.56;;;4.80;92.41
6680;BME280;3376;42.664;23.346;2023-02-12T08:30:59;95562.97;;;4.70;85.73
6680;BME280;3376;42.664;23.346;2023-02-12T08:33:27;95562.06;;;4.26;86.36
6680;BME280;3376;42.664;23.346;2023-02-12T08:36:00;95563.03;;;3.78;87.60
6680;BME280;3376;42.664;23.346;2023-02-12T08:38:27;95561.06;;;3.57;88.88
6680;BME280;3376;42.664;23.346;2023-02-12T08:40:54;95568.63;;;3.35;88.53
6680;BME280;3376;42.664;23.346;2023-02-12T08:43:21;95564.97;;;3.14;90.96
6680;BME280;3376;42.664;23.346;2023-02-12T08:45:48;95569.69;;;2.95;91.50
6680;BME280;3376;42.664;23.346;2023-02-12T08:48:14;95570.13;;;2.89;92.13
6680;BME280;3376;42.664;23.346;2023-02-12T08:50:42;95573.09;;;2.83;93.98
6680;BME280;3376;42.664;23.346;2023-02-12T08:53:09;95574.03;;;2.82;93.33
6680;BME280;3376;42.664;23.346;2023-02-12T08:55:36;95574.03;;;2.57;93.46
6680;BME280;3376;42.664;23.346;2023-02-12T08:58:03;95579.97;;;2.45;95.29
6680;BME280;3376;42.664;23.346;2023-02-12T09:00:29;95577.91;;;2.50;96.17
6680;BME280;3376;42.664;23.346;2023-02-12T09:02:56;95581.78;;;2.43;96.04
6680;BME280;3376;42.664;23.346;2023-02-12T09:05:23;95580.00;;;2.18;96.92
6680;BME280;3376;42.664;23.346;2023-02-12T09:07:52;95584.00;;;2.22;97.52
6680;BME280;3376;42.664;23.346;2023-02-12T09:10:19;95595.69;;;2.39;99.21
6680;BME280;3376;42.664;23.346;2023-02-12T09:12:45;95591.06;;;2.31;97.79
6680;BME280;3376;42.664;23.346;2023-02-12T09:15:13;95586.50;;;2.36;99.20
6680;BME280;3376;42.664;23.346;2023-02-12T09:17:39;95590.69;;;2.37;100.00
6680;BME280;3376;42.664;23.346;2023-02-12T09:20:08;95585.16;;;2.43;99.37
6680;BME280;3376;42.664;23.346;2023-02-12T09:22:35;95589.47;;;2.43;99.31
6680;BME280;3376;42.664;23.346;2023-02-12T09:25:05;95574.13;;;2.43;98.27
6680;BME280;3376;42.664;23.346;2023-02-12T09:27:32;95591.09;;;2.57;99.87
6680;BME280;3376;42.664;23.346;2023-02-12T09:29:58;95595.38;;;2.43;98.34
6680;BME280;3376;42.664;23.346;2023-02-12T09:32:25;95599.78;;;2.42;100.00
6680;BME280;3376;42.664;23.346;2023-02-12T09:34:52;95598.25;;;2.39;99.23
6680;BME280;3376;42.664;23.346;2023-02-12T09:37:19;95600.47;;;2.43;100.00
6680;BME280;3376;42.664;23.346;2023-02-12T09:39:45;95611.16;;;2.50;100.00
6680;BME280;3376;42.664;23.346;2023-02-12T09:42:25;95609.53;;;2.62;99.54
6680;BME280;3376;42.664;23.346;2023-02-12T09:45:03;95610.00;;;2.54;98.41
6680;BME280;3376;42.664;23.346;2023-02-12T09:47:35;95603.06;;;2.56;98.61
6680;BME280;3376;42.664;23.346;2023-02-12T09:50:21;95597.84;;;2.58;98.75
6680;BME280;3376;42.664;23.346;2023-02-12T09:52:51;95615.16;;;2.67;98.12
6680;BME280;3376;42.664;23.346;2023-02-12T09:55:24;95612.69;;;2.65;98.28
6680;BME280;3376;42.664;23.346;2023-02-12T09:57:53;95616.78;;;2.68;98.34
6680;BME280;3376;42.664;23.346;2023-02-12T10:00:23;95598.38;;;2.75;97.23
6680;BME280;3376;42.664;23.346;2023-02-12T10:02:54;95611.88;;;2.90;97.50
6680;BME280;3376;42.664;23.346;2023-02-12T10:05:25;95611.59;;;2.94;97.27
6680;BME280;3376;42.664;23.346;2023-02-12T10:08:02;95609.03;;;2.94;95.84
6680;BME280;3376;42.664;23.346;2023-02-12T10:10:45;95609.00;;;3.07;96.52
6680;BME280;3376;42.664;23.346;2023-02-12T10:13:23;95613.91;;;3.22;95.71
6680;BME280;3376;42.664;23.346;2023-02-12T10:15:58;95620.06;;;3.32;95.51
6680;BME280;3376;42.664;23.346;2023-02-12T10:18:42;95617.66;;;3.42;93.90
6680;BME280;3376;42.664;23.346;2023-02-12T10:21:26;95593.63;;;3.32;92.21
6680;BME280;3376;42.664;23.346;2023-02-12T10:26:45;95616.63;;;3.81;91.89
6680;BME280;3376;42.664;23.346;2023-02-12T10:29:17;95618.44;;;3.91;91.27
6680;BME280;3376;42.664;23.346;2023-02-12T10:31:49;95595.66;;;3.99;96.01
6680;BME280;3376;42.664;23.346;2023-02-12T10:34:20;95600.22;;;4.07;90.06
6680;BME280;3376;42.664;23.346;2023-02-12T10:36:49;95598.38;;;4.09;89.37
6680;BME280;3376;42.664;23.346;2023-02-12T10:39:21;95616.91;;;4.12;88.61
6680;BME280;3376;42.664;23.346;2023-02-12T10:41:54;95614.47;;;4.11;89.94
6680;BME280;3376;42.664;23.346;2023-02-12T10:44:23;95625.63;;;4.10;89.80
6680;BME280;3376;42.664;23.346;2023-02-12T10:46:49;95624.59;;;4.12;89.25
6680;BME280;3376;42.664;23.346;2023-02-12T10:49:17;95604.38;;;3.97;89.27
6680;BME280;3376;42.664;23.346;2023-02-12T10:51:56;95626.22;;;4.13;89.41
6680;BME280;3376;42.664;23.346;2023-02-12T10:54:36;95625.81;;;3.96;89.73
6680;BME280;3376;42.664;23.346;2023-02-12T10:57:17;95631.44;;;4.01;90.19
6680;BME280;3376;42.664;23.346;2023-02-12T10:59:48;95629.63;;;4.14;90.68
6680;BME280;3376;42.664;23.346;2023-02-12T11:02:20;95606.38;;;3.81;90.21
6680;BME280;3376;42.664;23.346;2023-02-12T11:04:48;95631.63;;;3.98;91.41
6680;BME280;3376;42.664;23.346;2023-02-12T11:07:15;95622.53;;;3.94;93.33
6680;BME280;3376;42.664;23.346;2023-02-12T11:09:43;95616.09;;;3.88;90.98
6680;BME280;3376;42.664;23.346;2023-02-12T11:12:20;95623.28;;;4.07;92.17
6680;BME280;3376;42.664;23.346;2023-02-12T11:14:52;95629.88;;;4.22;90.93
6680;BME280;3376;42.664;23.346;2023-02-12T11:17:24;95618.94;;;4.20;89.45
6680;BME280;3376;42.664;23.346;2023-02-12T11:22:51;95614.53;;;4.33;89.81
6680;BME280;3376;42.664;23.346;2023-02-12T11:25:19;95618.19;;;4.41;88.72
6680;BME280;3376;42.664;23.346;2023-02-12T11:27:58;95619.06;;;4.64;90.41
6680;BME280;3376;42.664;23.346;2023-02-12T11:30:27;95605.25;;;4.43;88.00
6680;BME280;3376;42.664;23.346;2023-02-12T11:32:54;95605.41;;;4.52;87.80
6680;BME280;3376;42.664;23.346;2023-02-12T11:35:21;95591.75;;;4.52;88.45
6680;BME280;3376;42.664;23.346;2023-02-12T11:37:54;95617.81;;;4.80;88.15
6680;BME280;3376;42.664;23.346;2023-02-12T11:40:23;95605.31;;;4.65;88.17
6680;BME280;3376;42.664;23.346;2023-02-12T11:42:53;95614.00;;;4.86;87.47
6680;BME280;3376;42.664;23.346;2023-02-12T11:45:24;95621.47;;;5.00;86.56
6680;BME280;3376;42.664;23.346;2023-02-12T11:47:54;95609.34;;;5.02;87.57
6680;BME280;3376;42.664;23.346;2023-02-12T11:50:25;95616.34;;;5.11;87.65
6680;BME280;3376;42.664;23.346;2023-02-12T11:52:56;95620.22;;;5.17;85.22
6680;BME280;3376;42.664;23.346;2023-02-12T11:55:27;95625.81;;;5.33;84.58
6680;BME280;3376;42.664;23.346;2023-02-12T11:58:01;95596.72;;;5.21;84.62
6680;BME280;3376;42.664;23.346;2023-02-12T12:00:32;95606.53;;;5.60;100.00
6680;BME280;3376;42.664;23.346;2023-02-12T12:03:08;95620.41;;;5.91;91.25
6680;BME280;3376;42.664;23.346;2023-02-12T12:05:39;95622.06;;;5.81;87.75
6680;BME280;3376;42.664;23.346;2023-02-12T12:08:13;95622.63;;;5.73;87.28
6680;BME280;3376;42.664;23.346;2023-02-12T12:10:45;95624.88;;;5.67;89.75
6680;BME280;3376;42.664;23.346;2023-02-12T12:13:16;95628.09;;;5.80;92.45
6680;BME280;3376;42.664;23.346;2023-02-12T12:15:51;95618.19;;;5.75;91.47
6680;BME280;3376;42.664;23.346;2023-02-12T12:18:43;95621.22;;;5.91;91.47
6680;BME280;3376;42.664;23.346;2023-02-12T12:21:35;95622.59;;;6.07;91.99
6680;BME280;3376;42.664;23.346;2023-02-12T12:24:10;95621.25;;;6.23;90.64
6680;BME280;3376;42.664;23.346;2023-02-12T12:26:45;95602.47;;;6.12;86.12
6680;BME280;3376;42.664;23.346;2023-02-12T12:29:18;95635.34;;;6.08;83.84
6680;BME280;3376;42.664;23.346;2023-02-12T12:31:49;95629.69;;;6.14;85.47
6680;BME280;3376;42.664;23.346;2023-02-12T12:34:21;95633.09;;;6.15;87.26
6680;BME280;3376;42.664;23.346;2023-02-12T12:37:13;95632.13;;;6.16;85.67
6680;BME280;3376;42.664;23.346;2023-02-12T12:39:50;95586.75;;;5.83;84.82
6680;BME280;3376;42.664;23.346;2023-02-12T12:42:48;95637.13;;;6.39;85.50
6680;BME280;3376;42.664;23.346;2023-02-12T12:45:26;95639.06;;;6.47;84.36
6680;BME280;3376;42.664;23.346;2023-02-12T12:48:06;95640.19;;;6.54;81.39
6680;BME280;3376;42.664;23.346;2023-02-12T12:51:00;95174.88;;;3.61;81.50
6680;BME280;3376;42.664;23.346;2023-02-12T12:53:39;95635.78;;;6.45;82.94
6680;BME280;3376;42.664;23.346;2023-02-12T12:56:33;95649.44;;;6.25;83.42
6680;BME280;3376;42.664;23.346;2023-02-12T12:59:43;95652.75;;;6.05;81.99
6680;BME280;3376;42.664;23.346;2023-02-12T13:05:54;95653.94;;;5.67;84.35
6680;BME280;3376;42.664;23.346;2023-02-12T13:08:38;95654.19;;;5.64;84.38
6680;BME280;3376;42.664;23.346;2023-02-12T13:11:11;95654.53;;;5.49;85.67
6680;BME280;3376;42.664;23.346;2023-02-12T13:13:44;95659.91;;;5.24;85.65
6680;BME280;3376;42.664;23.346;2023-02-12T13:16:17;95624.63;;;5.15;88.66
6680;BME280;3376;42.664;23.346;2023-02-12T13:18:54;95654.69;;;5.36;87.19
6680;BME280;3376;42.664;23.346;2023-02-12T13:21:36;95648.81;;;5.23;87.17
6680;BME280;3376;42.664;23.346;2023-02-12T13:24:16;95664.13;;;5.36;87.71
6680;BME280;3376;42.664;23.346;2023-02-12T13:26:50;95666.34;;;5.40;86.42
6680;BME280;3376;42.664;23.346;2023-02-12T13:29:20;95660.03;;;5.44;86.21
6680;BME280;3376;42.664;23.346;2023-02-12T13:31:51;95666.47;;;5.28;86.40
6680;BME280;3376;42.664;23.346;2023-02-12T13:34:19;95651.63;;;5.20;88.21
6680;BME280;3376;42.664;23.346;2023-02-12T13:36:49;95653.03;;;5.24;88.70
6680;BME280;3376;42.664;23.346;2023-02-12T13:39:24;95651.38;;;5.12;85.84
6680;BME280;3376;42.664;23.346;2023-02-12T13:42:01;95668.13;;;4.83;88.20
6680;BME280;3376;42.664;23.346;2023-02-12T13:44:35;95669.63;;;4.86;92.01
6680;BME280;3376;42.664;23.346;2023-02-12T13:47:14;95675.59;;;4.86;90.00
6680;BME280;3376;42.664;23.346;2023-02-12T13:49:49;95668.38;;;4.91;90.06
6680;BME280;3376;42.664;23.346;2023-02-12T13:52:26;95665.56;;;4.83;88.82